Plunketts Creek, Pennsylvania
Current Conditions -  °F | °C
As of 11:54 PM on Wednesday 22 Oct 2014 (Local Time) from KIPT Reporting Station
Overcast Overcast  
Wind Chill: 51°   Ceiling: 2300
Heat Index: 51°   Visibility: 10mi
Dew Point: 42°   Wind: 12mph
Humidity: 71%   Direction: 300°WNW
Pressure: 29.97"   Gusts: NA
Location:  41.246°N, 77.0167°W
Report Text: KIPT 230354Z AUTO 30010KT 10SM OVC023 11/06 A2997 RMK AO2 SLP150 T01060056
Loading
Personal Weather Stations






























Interactive Weather Map
Tropical Storm Tracking
New forecast layout! Learn more

10-Day Weather Forecast

Advertisements
Track Severe Weather on mobile